createdAt,value
2018-11-21T00:00:10.675Z,1002.63
2018-11-21T00:01:10.628Z,1002.73
2018-11-21T00:02:10.613Z,1002.69
2018-11-21T00:03:10.602Z,1002.78
2018-11-21T00:04:10.592Z,1002.80
2018-11-21T00:05:10.581Z,1002.76
2018-11-21T00:06:10.854Z,1002.78
2018-11-21T00:07:10.557Z,1002.72
2018-11-21T00:08:10.547Z,1002.75
2018-11-21T00:09:10.536Z,1002.77
2018-11-21T00:10:10.530Z,1002.73
2018-11-21T00:11:10.514Z,1002.73
2018-11-21T00:12:10.538Z,1002.72
2018-11-21T00:13:10.495Z,1002.71
2018-11-21T00:14:10.483Z,1002.75
2018-11-21T00:15:10.472Z,1002.69
2018-11-21T00:16:10.461Z,1002.67
2018-11-21T00:17:10.453Z,1002.72
2018-11-21T00:18:10.476Z,1002.76
2018-11-21T00:19:10.429Z,1002.82
2018-11-21T00:20:10.417Z,1002.81
2018-11-21T00:21:10.407Z,1002.88
2018-11-21T00:22:10.395Z,1002.85
2018-11-21T00:23:10.385Z,1002.89
2018-11-21T00:24:10.408Z,1002.87
2018-11-21T00:25:10.364Z,1002.93
2018-11-21T00:26:10.354Z,1002.93
2018-11-21T00:27:10.375Z,1002.95
2018-11-21T00:28:10.332Z,1002.88
2018-11-21T00:29:10.322Z,1002.96
2018-11-21T00:30:10.311Z,1003.00
2018-11-21T00:31:10.300Z,1003.03
2018-11-21T00:32:10.288Z,1003.08
2018-11-21T00:33:10.308Z,1003.06
2018-11-21T00:34:10.302Z,1003.09
2018-11-21T00:35:10.255Z,1003.02
2018-11-21T00:36:10.245Z,1003.02
2018-11-21T00:37:10.232Z,1003.01
2018-11-21T00:38:10.224Z,1003.02
2018-11-21T00:39:10.212Z,1002.95
2018-11-21T00:40:10.235Z,1002.96
2018-11-21T00:41:10.190Z,1002.99
2018-11-21T00:42:10.178Z,1002.97
2018-11-21T00:43:10.167Z,1002.94
2018-11-21T00:44:10.156Z,1002.94
2018-11-21T00:45:10.146Z,1002.90
2018-11-21T00:46:10.170Z,1002.91
2018-11-21T00:47:10.128Z,1002.83
2018-11-21T00:48:10.113Z,1002.84
2018-11-21T00:49:10.182Z,1002.78
2018-11-21T00:50:10.092Z,1002.74
2018-11-21T00:51:10.080Z,1002.75
2018-11-21T00:52:10.069Z,1002.76
2018-11-21T00:53:10.059Z,1002.71
2018-11-21T00:54:10.048Z,1002.75
2018-11-21T00:55:10.080Z,1002.77
2018-11-21T00:56:10.031Z,1002.76
2018-11-21T00:57:10.014Z,1002.76
2018-11-21T00:58:10.005Z,1002.76
2018-11-21T00:59:09.992Z,1002.71
2018-11-21T01:00:09.983Z,1002.79
2018-11-21T01:01:10.006Z,1002.84
2018-11-21T01:02:09.961Z,1002.79
2018-11-21T01:03:09.950Z,1002.83
2018-11-21T01:04:09.938Z,1002.87
2018-11-21T01:05:09.928Z,1002.84
2018-11-21T01:06:09.918Z,1002.87
2018-11-21T01:07:09.938Z,1002.88
2018-11-21T01:08:09.932Z,1002.92
2018-11-21T01:09:09.917Z,1002.96
2018-11-21T01:10:09.873Z,1002.99
2018-11-21T01:11:09.862Z,1003.04
2018-11-21T01:12:09.851Z,1003.07
2018-11-21T01:13:10.016Z,1003.12
2018-11-21T01:14:09.837Z,1003.12
2018-11-21T01:15:09.819Z,1003.20
2018-11-21T01:16:09.808Z,1003.21
2018-11-21T01:17:09.831Z,1003.26
2018-11-21T01:18:09.788Z,1003.28
2018-11-21T01:19:09.776Z,1003.32
2018-11-21T01:20:09.764Z,1003.32
2018-11-21T01:21:09.753Z,1003.37
2018-11-21T01:22:09.742Z,1003.39
2018-11-21T01:23:09.769Z,1003.35
2018-11-21T01:24:09.721Z,1003.42
2018-11-21T01:25:09.710Z,1003.39
2018-11-21T01:26:09.699Z,1003.33
2018-11-21T01:27:09.690Z,1003.33
2018-11-21T01:28:09.677Z,1003.36
2018-11-21T01:29:09.700Z,1003.36
2018-11-21T01:30:09.656Z,1003.37
2018-11-21T01:31:09.643Z,1003.37
2018-11-21T01:32:09.633Z,1003.35
2018-11-21T01:33:09.910Z,1003.41
2018-11-21T01:34:09.614Z,1003.43
2018-11-21T01:35:09.634Z,1003.39
2018-11-21T01:36:09.591Z,1003.42
2018-11-21T01:37:09.578Z,1003.37
2018-11-21T01:38:09.568Z,1003.41
2018-11-21T01:39:09.557Z,1003.49
2018-11-21T01:40:09.546Z,1003.53
2018-11-21T01:41:09.579Z,1003.55
2018-11-21T01:42:09.524Z,1003.52
2018-11-21T01:43:09.514Z,1003.55
2018-11-21T01:44:09.501Z,1003.56
2018-11-21T01:45:09.490Z,1003.53
2018-11-21T01:46:09.480Z,1003.54
2018-11-21T01:47:09.500Z,1003.58
2018-11-21T01:48:09.460Z,1003.52
2018-11-21T01:49:09.447Z,1003.57
2018-11-21T01:50:09.437Z,1003.58
2018-11-21T01:51:09.425Z,1003.55
2018-11-21T01:52:09.447Z,1003.59
2018-11-21T01:53:09.405Z,1003.53
2018-11-21T01:54:09.404Z,1003.50
2018-11-21T01:55:09.382Z,1003.50
2018-11-21T01:56:09.402Z,1003.47
2018-11-21T01:57:09.394Z,1003.49
2018-11-21T01:58:09.351Z,1003.52
2018-11-21T01:59:09.342Z,1003.55
2018-11-21T02:00:09.330Z,1003.62
2018-11-21T02:01:09.317Z,1003.62
2018-11-21T02:02:09.312Z,1003.63
2018-11-21T02:03:09.330Z,1003.66
2018-11-21T02:04:09.285Z,1003.64
2018-11-21T02:05:09.272Z,1003.67
2018-11-21T02:06:09.261Z,1003.67
2018-11-21T02:07:09.252Z,1003.69
2018-11-21T02:08:09.239Z,1003.73
2018-11-21T02:09:09.267Z,1003.79
2018-11-21T02:10:09.217Z,1003.76
2018-11-21T02:11:09.210Z,1003.78
2018-11-21T02:12:09.196Z,1003.78
2018-11-21T02:13:09.187Z,1003.75
2018-11-21T02:14:09.174Z,1003.74
2018-11-21T02:15:09.206Z,1003.72
2018-11-21T02:16:09.151Z,1003.69
2018-11-21T02:17:09.142Z,1003.72
2018-11-21T02:18:09.132Z,1003.65
2018-11-21T02:19:09.119Z,1003.63
2018-11-21T02:20:09.108Z,1003.62
2018-11-21T02:21:09.134Z,1003.65
2018-11-21T02:22:09.087Z,1003.70
2018-11-21T02:23:09.077Z,1003.69
2018-11-21T02:24:09.069Z,1003.77
2018-11-21T02:25:09.068Z,1003.79
2018-11-21T02:26:09.046Z,1003.74
2018-11-21T02:27:09.068Z,1003.70
2018-11-21T02:28:09.023Z,1003.70
2018-11-21T02:29:09.011Z,1003.75
2018-11-21T02:30:09.010Z,1003.76
2018-11-21T02:31:08.991Z,1003.76
2018-11-21T02:32:08.977Z,1003.80
2018-11-21T02:33:09.014Z,1003.80
2018-11-21T02:34:08.956Z,1003.81
2018-11-21T02:35:08.948Z,1003.79
2018-11-21T02:36:08.935Z,1003.81
2018-11-21T02:37:08.923Z,1003.84
2018-11-21T02:38:08.914Z,1003.91
2018-11-21T02:39:08.942Z,1003.95
2018-11-21T02:40:08.891Z,1003.97
2018-11-21T02:41:08.881Z,1003.98
2018-11-21T02:42:08.870Z,1003.94
2018-11-21T02:43:08.859Z,1003.94
2018-11-21T02:44:08.847Z,1004.02
2018-11-21T02:45:09.014Z,1004.07
2018-11-21T02:46:08.844Z,1004.10
2018-11-21T02:47:08.814Z,1004.05
2018-11-21T02:48:08.805Z,1004.06
2018-11-21T02:49:08.794Z,1003.98
2018-11-21T02:50:08.782Z,1004.02
2018-11-21T02:51:08.813Z,1004.03
2018-11-21T02:52:08.759Z,1004.00
2018-11-21T02:53:08.749Z,1003.97
2018-11-21T02:54:08.739Z,1003.97
2018-11-21T02:55:08.731Z,1004.01
2018-11-21T02:56:08.717Z,1004.04
2018-11-21T02:57:08.744Z,1004.00
2018-11-21T02:58:08.693Z,1004.00
2018-11-21T02:59:08.724Z,1004.00
2018-11-21T03:00:08.673Z,1004.01
2018-11-21T03:01:08.661Z,1004.04
2018-11-21T03:02:08.650Z,1004.04
2018-11-21T03:03:08.642Z,1004.05
2018-11-21T03:04:08.628Z,1004.08
2018-11-21T03:05:08.670Z,1004.08
2018-11-21T03:06:08.606Z,1004.10
2018-11-21T03:07:08.595Z,1004.07
2018-11-21T03:08:08.596Z,1004.12
2018-11-21T03:09:08.575Z,1004.11
2018-11-21T03:10:08.563Z,1004.11
2018-11-21T03:11:08.597Z,1004.13
2018-11-21T03:12:08.542Z,1004.09
2018-11-21T03:13:08.532Z,1004.12
2018-11-21T03:14:08.520Z,1004.18
2018-11-21T03:15:08.509Z,1004.19
2018-11-21T03:16:08.498Z,1004.19
2018-11-21T03:17:08.531Z,1004.13
2018-11-21T03:18:08.522Z,1004.15
2018-11-21T03:19:08.465Z,1004.15
2018-11-21T03:20:08.457Z,1004.15
2018-11-21T03:21:08.442Z,1004.14
2018-11-21T03:22:08.431Z,1004.07
2018-11-21T03:23:08.423Z,1004.04
2018-11-21T03:24:08.464Z,1004.03
2018-11-21T03:25:08.399Z,1003.99
2018-11-21T03:26:08.388Z,1003.98
2018-11-21T03:27:08.376Z,1004.05
2018-11-21T03:28:08.367Z,1004.06
2018-11-21T03:29:08.357Z,1004.09
2018-11-21T03:30:08.396Z,1004.18
2018-11-21T03:31:08.337Z,1004.16
2018-11-21T03:32:08.324Z,1004.20
2018-11-21T03:33:08.313Z,1004.22
2018-11-21T03:34:08.303Z,1004.22
2018-11-21T03:35:08.290Z,1004.31
2018-11-21T03:36:08.332Z,1004.36
2018-11-21T03:37:08.270Z,1004.31
2018-11-21T03:38:08.261Z,1004.35
2018-11-21T03:39:08.247Z,1004.42
2018-11-21T03:40:08.236Z,1004.40
2018-11-21T03:41:08.226Z,1004.42
2018-11-21T03:42:08.258Z,1004.42
2018-11-21T03:43:08.203Z,1004.48
2018-11-21T03:44:08.192Z,1004.46
2018-11-21T03:45:08.189Z,1004.54
2018-11-21T03:46:08.170Z,1004.59
2018-11-21T03:47:08.206Z,1004.56
2018-11-21T03:48:08.150Z,1004.60
2018-11-21T03:49:08.138Z,1004.57
2018-11-21T03:50:08.127Z,1004.62
2018-11-21T03:51:08.117Z,1004.60
2018-11-21T03:52:08.104Z,1004.59
2018-11-21T03:53:08.141Z,1004.64
2018-11-21T03:54:08.087Z,1004.67
2018-11-21T03:55:08.079Z,1004.68
2018-11-21T03:56:08.061Z,1004.66
2018-11-21T03:57:08.053Z,1004.67
2018-11-21T03:58:08.039Z,1004.71
2018-11-21T03:59:08.075Z,1004.67
2018-11-21T04:00:08.019Z,1004.69
2018-11-21T04:01:08.054Z,1004.70
2018-11-21T04:02:07.996Z,1004.69
2018-11-21T04:03:07.985Z,1004.69
2018-11-21T04:04:07.976Z,1004.69
2018-11-21T04:05:07.965Z,1004.70
2018-11-21T04:06:07.954Z,1004.72
2018-11-21T04:07:07.990Z,1004.69
2018-11-21T04:08:07.981Z,1004.70
2018-11-21T04:09:07.920Z,1004.66
2018-11-21T04:10:07.910Z,1004.66
2018-11-21T04:11:07.897Z,1004.67
2018-11-21T04:12:07.886Z,1004.67
2018-11-21T04:13:07.877Z,1004.71
2018-11-21T04:14:07.912Z,1004.73
2018-11-21T04:15:07.855Z,1004.70
2018-11-21T04:16:07.844Z,1004.73
2018-11-21T04:17:07.836Z,1004.78
2018-11-21T04:18:07.867Z,1004.81
2018-11-21T04:19:07.811Z,1004.85
2018-11-21T04:20:07.804Z,1004.87
2018-11-21T04:21:07.789Z,1004.90
2018-11-21T04:22:07.829Z,1004.89
2018-11-21T04:23:07.767Z,1004.90
2018-11-21T04:24:07.756Z,1004.92
2018-11-21T04:25:07.753Z,1004.88
2018-11-21T04:26:07.748Z,1004.89
2018-11-21T04:27:07.724Z,1004.82
2018-11-21T04:28:08.009Z,1004.79
2018-11-21T04:29:07.701Z,1004.84
2018-11-21T04:30:07.692Z,1004.77
2018-11-21T04:31:07.679Z,1004.78
2018-11-21T04:32:07.667Z,1004.79
2018-11-21T04:33:07.660Z,1004.78
2018-11-21T04:34:07.693Z,1004.82
2018-11-21T04:35:07.634Z,1004.85
2018-11-21T04:36:07.624Z,1004.89
2018-11-21T04:37:07.615Z,1004.93
2018-11-21T04:38:07.679Z,1004.98
2018-11-21T04:39:07.594Z,1004.94
2018-11-21T04:40:07.627Z,1004.99
2018-11-21T04:41:07.576Z,1005.10
2018-11-21T04:42:08.510Z,1005.12
2018-11-21T04:43:07.547Z,1005.14
2018-11-21T04:44:07.536Z,1005.15
2018-11-21T04:45:07.526Z,1005.16
2018-11-21T04:46:07.565Z,1005.18
2018-11-21T04:47:07.504Z,1005.20
2018-11-21T04:48:07.494Z,1005.26
2018-11-21T04:49:07.483Z,1005.23
2018-11-21T04:50:07.473Z,1005.26
2018-11-21T04:51:07.462Z,1005.27
2018-11-21T04:52:07.496Z,1005.26
2018-11-21T04:53:07.439Z,1005.26
2018-11-21T04:54:07.431Z,1005.32
2018-11-21T04:55:07.417Z,1005.25
2018-11-21T04:56:07.452Z,1005.25
2018-11-21T04:57:07.397Z,1005.26
2018-11-21T04:58:07.387Z,1005.28
2018-11-21T04:59:07.420Z,1005.27
2018-11-21T05:00:07.367Z,1005.28
2018-11-21T05:01:07.398Z,1005.26
2018-11-21T05:02:07.341Z,1005.29
2018-11-21T05:03:07.331Z,1005.32
2018-11-21T05:04:07.321Z,1005.35
2018-11-21T05:05:07.313Z,1005.28
2018-11-21T05:06:07.298Z,1005.29
2018-11-21T05:07:07.346Z,1005.25
2018-11-21T05:08:07.277Z,1005.23
2018-11-21T05:09:07.265Z,1005.28
2018-11-21T05:10:07.254Z,1005.27
2018-11-21T05:11:07.243Z,1005.23
2018-11-21T05:12:07.231Z,1005.25
2018-11-21T05:13:07.272Z,1005.30
2018-11-21T05:14:07.216Z,1005.37
2018-11-21T05:15:07.201Z,1005.38
2018-11-21T05:16:07.190Z,1005.37
2018-11-21T05:17:07.225Z,1005.38
2018-11-21T05:18:07.217Z,1005.38
2018-11-21T05:19:07.157Z,1005.42
2018-11-21T05:20:07.145Z,1005.44
2018-11-21T05:21:07.133Z,1005.36
2018-11-21T05:22:07.123Z,1005.36
2018-11-21T05:23:07.112Z,1005.32
2018-11-21T05:24:07.147Z,1005.36
2018-11-21T05:25:07.094Z,1005.35
2018-11-21T05:26:07.082Z,1005.33
2018-11-21T05:27:07.069Z,1005.35
2018-11-21T05:28:07.057Z,1005.35
2018-11-21T05:29:07.047Z,1005.40
2018-11-21T05:30:07.091Z,1005.34
2018-11-21T05:31:07.029Z,1005.39
2018-11-21T05:32:07.014Z,1005.44
2018-11-21T05:33:07.003Z,1005.45
2018-11-21T05:34:07.043Z,1005.41
2018-11-21T05:35:06.981Z,1005.41
2018-11-21T05:36:06.971Z,1005.42
2018-11-21T05:37:06.960Z,1005.44
2018-11-21T05:38:06.949Z,1005.46
2018-11-21T05:39:06.937Z,1005.50
2018-11-21T05:40:07.000Z,1005.47
2018-11-21T05:41:06.916Z,1005.57
2018-11-21T05:42:06.908Z,1005.56
2018-11-21T05:43:06.892Z,1005.65
2018-11-21T05:44:06.883Z,1005.67
2018-11-21T05:45:06.917Z,1005.74
2018-11-21T05:46:06.862Z,1005.76
2018-11-21T05:47:06.850Z,1005.76
2018-11-21T05:48:06.840Z,1005.68
2018-11-21T05:49:06.830Z,1005.65
2018-11-21T05:50:06.817Z,1005.66
2018-11-21T05:51:07.001Z,1005.73
2018-11-21T05:52:06.797Z,1005.78
2018-11-21T05:53:06.785Z,1005.84
2018-11-21T05:54:06.774Z,1005.87
2018-11-21T05:55:06.765Z,1005.85
2018-11-21T05:56:06.755Z,1005.83
2018-11-21T05:57:06.786Z,1005.88
2018-11-21T05:58:06.730Z,1005.83
2018-11-21T05:59:06.769Z,1005.89
2018-11-21T06:00:06.709Z,1005.92
2018-11-21T06:01:06.697Z,1005.93
2018-11-21T06:02:06.693Z,1005.91
2018-11-21T06:03:06.682Z,1005.92
2018-11-21T06:04:06.666Z,1005.92
2018-11-21T06:05:06.702Z,1005.90
2018-11-21T06:06:09.925Z,1005.94
2018-11-21T06:07:06.636Z,1005.97
2018-11-21T06:08:06.626Z,1006.00
2018-11-21T06:09:06.614Z,1005.98
2018-11-21T06:10:06.600Z,1005.99
2018-11-21T06:11:06.647Z,1006.03
2018-11-21T06:12:06.578Z,1006.04
2018-11-21T06:13:06.618Z,1006.12
2018-11-21T06:14:06.568Z,1006.09
2018-11-21T06:15:06.599Z,1006.09
2018-11-21T06:16:06.540Z,1006.10
2018-11-21T06:17:06.570Z,1006.16
2018-11-21T06:18:06.524Z,1006.13
2018-11-21T06:19:06.504Z,1006.16
2018-11-21T06:20:06.493Z,1006.14
2018-11-21T06:21:06.481Z,1006.15
2018-11-21T06:22:06.471Z,1006.20
2018-11-21T06:23:06.507Z,1006.17
2018-11-21T06:24:06.448Z,1006.18
2018-11-21T06:25:06.444Z,1006.21
2018-11-21T06:26:06.475Z,1006.16
2018-11-21T06:27:06.417Z,1006.12
2018-11-21T06:28:06.406Z,1006.12
2018-11-21T06:29:06.396Z,1006.09
2018-11-21T06:30:06.383Z,1006.14
2018-11-21T06:31:06.401Z,1006.15
2018-11-21T06:32:06.404Z,1006.13
2018-11-21T06:33:06.360Z,1006.12
2018-11-21T06:34:06.389Z,1006.13
2018-11-21T06:35:06.331Z,1006.18
2018-11-21T06:36:06.318Z,1006.20
2018-11-21T06:37:06.329Z,1006.17
2018-11-21T06:38:06.304Z,1006.14
2018-11-21T06:39:06.289Z,1006.20
2018-11-21T06:40:06.332Z,1006.20
2018-11-21T06:41:06.267Z,1006.22
2018-11-21T06:42:06.252Z,1006.30
2018-11-21T06:43:06.242Z,1006.34
2018-11-21T06:44:06.231Z,1006.31
2018-11-21T06:45:06.222Z,1006.39
2018-11-21T06:46:06.253Z,1006.40
2018-11-21T06:47:06.198Z,1006.40
2018-11-21T06:48:06.185Z,1006.44
2018-11-21T06:49:06.177Z,1006.42
2018-11-21T06:50:06.184Z,1006.41
2018-11-21T06:51:06.181Z,1006.44
2018-11-21T06:52:06.230Z,1006.48
2018-11-21T06:53:06.133Z,1006.50
2018-11-21T06:54:06.123Z,1006.56
2018-11-21T06:55:06.113Z,1006.53
2018-11-21T06:56:06.100Z,1006.60
2018-11-21T06:57:06.148Z,1006.54
2018-11-21T06:58:06.169Z,1006.62
2018-11-21T06:59:06.085Z,1006.65
2018-11-21T07:00:06.068Z,1006.62
2018-11-21T07:01:06.123Z,1006.67
2018-11-21T07:02:06.057Z,1006.67
2018-11-21T07:03:06.053Z,1006.64
2018-11-21T07:04:06.070Z,1006.68
2018-11-21T07:05:06.006Z,1006.71
2018-11-21T07:06:06.016Z,1006.74
2018-11-21T07:07:05.981Z,1006.73
2018-11-21T07:08:05.972Z,1006.80
2018-11-21T07:09:06.020Z,1006.76
2018-11-21T07:10:06.008Z,1006.76
2018-11-21T07:11:05.943Z,1006.75
2018-11-21T07:12:05.944Z,1006.77
2018-11-21T07:13:11.005Z,1006.82
2018-11-21T07:14:07.202Z,1006.86
2018-11-21T07:15:05.908Z,1006.86
2018-11-21T07:16:05.953Z,1006.90
2018-11-21T07:17:05.911Z,1006.99
2018-11-21T07:18:05.919Z,1006.95
2018-11-21T07:19:05.856Z,1007.00
2018-11-21T07:20:05.842Z,1006.95
2018-11-21T07:21:05.827Z,1007.00
2018-11-21T07:22:05.875Z,1006.98
2018-11-21T07:23:05.808Z,1006.96
2018-11-21T07:24:05.813Z,1006.94
2018-11-21T07:25:05.843Z,1006.99
2018-11-21T07:26:05.838Z,1007.02
2018-11-21T07:27:05.790Z,1006.98
2018-11-21T07:28:05.802Z,1007.03
2018-11-21T07:29:05.753Z,1007.04
2018-11-21T07:30:05.740Z,1007.09
2018-11-21T07:31:05.739Z,1007.04
2018-11-21T07:32:05.760Z,1007.06
2018-11-21T07:33:05.753Z,1007.02
2018-11-21T07:34:05.827Z,1007.00
2018-11-21T07:35:05.714Z,1006.99
2018-11-21T07:36:05.719Z,1006.98
2018-11-21T07:37:05.688Z,1007.00
2018-11-21T07:38:05.652Z,1007.03
2018-11-21T07:39:05.632Z,1007.07
2018-11-21T07:40:05.668Z,1007.08
2018-11-21T07:41:05.613Z,1007.09
2018-11-21T07:42:05.601Z,1007.11
2018-11-21T07:43:05.594Z,1007.13
2018-11-21T07:44:05.582Z,1007.15
2018-11-21T07:45:05.577Z,1007.18
2018-11-21T07:46:05.855Z,1007.18
2018-11-21T07:47:05.621Z,1007.15
2018-11-21T07:48:05.549Z,1007.16
2018-11-21T07:49:05.525Z,1007.20
2018-11-21T07:50:05.518Z,1007.16
2018-11-21T07:51:05.502Z,1007.20
2018-11-21T07:52:05.565Z,1007.19
2018-11-21T07:53:05.481Z,1007.22
2018-11-21T07:54:05.534Z,1007.28
2018-11-21T07:55:05.476Z,1007.31
2018-11-21T07:56:05.453Z,1007.31
2018-11-21T07:57:05.493Z,1007.33
2018-11-21T07:58:05.492Z,1007.36
2018-11-21T07:59:05.417Z,1007.37
2018-11-21T08:00:05.465Z,1007.38
2018-11-21T08:01:05.410Z,1007.39
2018-11-21T08:02:05.389Z,1007.36
2018-11-21T08:03:05.382Z,1007.32
2018-11-21T08:04:05.365Z,1007.36
2018-11-21T08:05:05.348Z,1007.34
2018-11-21T08:06:05.395Z,1007.36
2018-11-21T08:07:05.331Z,1007.45
2018-11-21T08:08:05.325Z,1007.49
2018-11-21T08:09:05.314Z,1007.44
2018-11-21T08:10:05.304Z,1007.45
2018-11-21T08:11:05.290Z,1007.47
2018-11-21T08:12:05.322Z,1007.48
2018-11-21T08:13:05.267Z,1007.47
2018-11-21T08:14:05.256Z,1007.48
2018-11-21T08:15:05.249Z,1007.50
2018-11-21T08:16:05.238Z,1007.52
2018-11-21T08:17:05.282Z,1007.56
2018-11-21T08:18:05.259Z,1007.61
2018-11-21T08:19:05.200Z,1007.67
2018-11-21T08:20:05.245Z,1007.69
2018-11-21T08:21:05.176Z,1007.73
2018-11-21T08:22:05.169Z,1007.75
2018-11-21T08:23:05.283Z,1007.77
2018-11-21T08:24:05.151Z,1007.77
2018-11-21T08:25:05.136Z,1007.79
2018-11-21T08:26:05.133Z,1007.76
2018-11-21T08:27:05.132Z,1007.77
2018-11-21T08:28:05.148Z,1007.77
2018-11-21T08:29:05.144Z,1007.76
2018-11-21T08:30:05.083Z,1007.88
2018-11-21T08:31:05.072Z,1007.85
2018-11-21T08:32:05.061Z,1007.84
2018-11-21T08:33:05.053Z,1007.83
2018-11-21T08:34:05.050Z,1007.86
2018-11-21T08:35:05.072Z,1007.90
2018-11-21T08:36:05.027Z,1007.84
2018-11-21T08:37:05.004Z,1007.86
2018-11-21T08:38:04.991Z,1007.84
2018-11-21T08:39:04.986Z,1007.89
2018-11-21T08:40:04.972Z,1007.88
2018-11-21T08:41:05.006Z,1007.86
2018-11-21T08:42:04.949Z,1007.86
2018-11-21T08:43:04.955Z,1007.88
2018-11-21T08:44:04.936Z,1007.87
2018-11-21T08:45:04.937Z,1007.85
2018-11-21T08:46:04.909Z,1007.87
2018-11-21T08:47:04.944Z,1007.91
2018-11-21T08:48:04.889Z,1007.91
2018-11-21T08:49:04.876Z,1007.94
2018-11-21T08:50:04.863Z,1008.02
2018-11-21T08:51:04.895Z,1008.03
2018-11-21T08:52:04.839Z,1007.99
2018-11-21T08:53:04.904Z,1008.04
2018-11-21T08:54:04.833Z,1008.00
2018-11-21T08:55:08.917Z,1007.94
2018-11-21T08:56:04.869Z,1007.87
2018-11-21T08:57:04.790Z,1007.86
2018-11-21T08:58:04.775Z,1007.89
2018-11-21T08:59:04.821Z,1007.86
2018-11-21T09:00:04.811Z,1007.96
2018-11-21T09:01:04.794Z,1008.01
2018-11-21T09:02:04.798Z,1008.10
2018-11-21T09:03:04.719Z,1008.13
2018-11-21T09:04:04.723Z,1008.21
2018-11-21T09:05:04.718Z,1008.25
2018-11-21T09:06:04.742Z,1008.33
2018-11-21T09:07:04.683Z,1008.34
2018-11-21T09:08:04.672Z,1008.40
2018-11-21T09:09:04.715Z,1008.46
2018-11-21T09:10:04.649Z,1008.39
2018-11-21T09:11:04.687Z,1008.42
2018-11-21T09:12:08.685Z,1008.39
2018-11-21T09:13:04.618Z,1008.36
2018-11-21T09:14:04.603Z,1008.40
2018-11-21T09:15:04.597Z,1008.36
2018-11-21T09:16:04.602Z,1008.39
2018-11-21T09:17:04.622Z,1008.39
2018-11-21T09:18:04.578Z,1008.42
2018-11-21T09:19:04.600Z,1008.44
2018-11-21T09:20:04.541Z,1008.47
2018-11-21T09:21:04.534Z,1008.45
2018-11-21T09:22:04.522Z,1008.40
2018-11-21T09:23:04.796Z,1008.39
2018-11-21T09:24:04.499Z,1008.41
2018-11-21T09:25:04.483Z,1008.38
2018-11-21T09:26:04.478Z,1008.36
2018-11-21T09:27:04.465Z,1008.40
2018-11-21T09:28:04.451Z,1008.36
2018-11-21T09:29:04.501Z,1008.37
2018-11-21T09:30:04.437Z,1008.40
2018-11-21T09:31:04.433Z,1008.41
2018-11-21T09:32:04.421Z,1008.48
2018-11-21T09:33:04.400Z,1008.48
2018-11-21T09:34:04.389Z,1008.53
2018-11-21T09:35:04.490Z,1008.51
2018-11-21T09:36:04.368Z,1008.52
2018-11-21T09:37:04.362Z,1008.56
2018-11-21T09:38:04.346Z,1008.56
2018-11-21T09:39:04.342Z,1008.60
2018-11-21T09:40:04.328Z,1008.59
2018-11-21T09:41:04.585Z,1008.55
2018-11-21T09:42:04.300Z,1008.53
2018-11-21T09:43:04.290Z,1008.51
2018-11-21T09:44:04.283Z,1008.54
2018-11-21T09:45:04.272Z,1008.54
2018-11-21T09:46:04.271Z,1008.52
2018-11-21T09:47:04.301Z,1008.50
2018-11-21T09:48:04.237Z,1008.48
2018-11-21T09:49:04.238Z,1008.56
2018-11-21T09:50:04.216Z,1008.61
2018-11-21T09:51:04.205Z,1008.63
2018-11-21T09:52:04.242Z,1008.63
2018-11-21T09:53:04.184Z,1008.63
2018-11-21T09:54:04.180Z,1008.70
2018-11-21T09:55:04.214Z,1008.75
2018-11-21T09:56:04.149Z,1008.78
2018-11-21T09:57:04.144Z,1008.76
2018-11-21T09:58:04.145Z,1008.82
2018-11-21T09:59:04.122Z,1008.81
2018-11-21T10:00:04.108Z,1008.82
2018-11-21T10:01:04.200Z,1008.84
2018-11-21T10:02:04.085Z,1008.88
2018-11-21T10:03:04.079Z,1008.91
2018-11-21T10:04:04.074Z,1008.88
2018-11-21T10:05:04.058Z,1008.89
2018-11-21T10:06:04.043Z,1008.84
2018-11-21T10:07:04.080Z,1008.78
2018-11-21T10:08:04.025Z,1008.86
2018-11-21T10:09:04.321Z,1008.89
2018-11-21T10:10:04.014Z,1008.95
2018-11-21T10:11:03.987Z,1008.92
2018-11-21T10:12:03.982Z,1008.95
2018-11-21T10:13:03.970Z,1008.97
2018-11-21T10:14:03.959Z,1008.89
2018-11-21T10:15:04.003Z,1008.85
2018-11-21T10:16:03.938Z,1008.80
2018-11-21T10:17:03.938Z,1008.83
2018-11-21T10:18:03.919Z,1008.80
2018-11-21T10:19:03.905Z,1008.81
2018-11-21T10:20:03.890Z,1008.78
2018-11-21T10:21:03.934Z,1008.81
2018-11-21T10:22:03.869Z,1008.79
2018-11-21T10:23:03.898Z,1008.78
2018-11-21T10:24:03.849Z,1008.77
2018-11-21T10:25:03.839Z,1008.71
2018-11-21T10:26:03.826Z,1008.76
2018-11-21T10:27:03.862Z,1008.78
2018-11-21T10:28:03.823Z,1008.78
2018-11-21T10:29:03.800Z,1008.78
2018-11-21T10:30:03.790Z,1008.77
2018-11-21T10:31:03.774Z,1008.78
2018-11-21T10:32:03.807Z,1008.71
2018-11-21T10:33:03.801Z,1008.71
2018-11-21T10:34:03.752Z,1008.66
2018-11-21T10:35:03.736Z,1008.69
2018-11-21T10:36:03.767Z,1008.62
2018-11-21T10:37:03.737Z,1008.71
2018-11-21T10:38:03.700Z,1008.73
2018-11-21T10:39:03.690Z,1008.73
2018-11-21T10:40:03.735Z,1008.74
2018-11-21T10:41:03.665Z,1008.79
2018-11-21T10:42:03.679Z,1008.79
2018-11-21T10:43:03.648Z,1008.83
2018-11-21T10:44:03.774Z,1008.77
2018-11-21T10:45:03.631Z,1008.76
2018-11-21T10:46:03.611Z,1008.79
2018-11-21T10:47:03.601Z,1008.76
2018-11-21T10:48:03.588Z,1008.83
2018-11-21T10:49:03.584Z,1008.80
2018-11-21T10:50:03.862Z,1008.84
2018-11-21T10:51:03.569Z,1008.84
2018-11-21T10:52:03.546Z,1008.85
2018-11-21T10:53:03.542Z,1008.84
2018-11-21T10:54:03.527Z,1008.81
2018-11-21T10:55:03.516Z,1008.85
2018-11-21T10:56:03.556Z,1008.81
2018-11-21T10:57:03.523Z,1008.79
2018-11-21T10:58:03.490Z,1008.78
2018-11-21T10:59:03.472Z,1008.83
2018-11-21T11:00:03.466Z,1008.83
2018-11-21T11:01:03.500Z,1008.79
2018-11-21T11:02:03.444Z,1008.82
2018-11-21T11:03:03.428Z,1008.80
2018-11-21T11:04:03.462Z,1008.80
2018-11-21T11:05:03.414Z,1008.78
2018-11-21T11:06:03.479Z,1008.83
2018-11-21T11:07:03.394Z,1008.81
2018-11-21T11:08:03.386Z,1008.74
2018-11-21T11:09:03.364Z,1008.87
2018-11-21T11:10:03.396Z,1008.84
2018-11-21T11:11:03.363Z,1008.84
2018-11-21T11:12:03.385Z,1008.84
2018-11-21T11:13:03.329Z,1008.85
2018-11-21T11:14:03.324Z,1008.83
2018-11-21T11:15:03.298Z,1008.87
2018-11-21T11:16:03.287Z,1008.85
2018-11-21T11:17:03.289Z,1008.87
2018-11-21T11:18:03.325Z,1008.82
2018-11-21T11:19:03.256Z,1008.90
2018-11-21T11:20:04.205Z,1008.89
2018-11-21T11:21:03.245Z,1008.89
2018-11-21T11:22:03.238Z,1008.82
2018-11-21T11:23:03.212Z,1008.89
2018-11-21T11:24:03.211Z,1008.87
2018-11-21T11:25:03.286Z,1008.92
2018-11-21T11:26:03.189Z,1008.94
2018-11-21T11:27:03.169Z,1008.96
2018-11-21T11:28:03.166Z,1008.95
2018-11-21T11:29:03.153Z,1009.02
2018-11-21T11:30:03.189Z,1008.98
2018-11-21T11:31:03.174Z,1009.04
2018-11-21T11:32:03.118Z,1009.07
2018-11-21T11:33:03.107Z,1009.04
2018-11-21T11:34:03.096Z,1009.07
2018-11-21T11:35:03.083Z,1009.07
2018-11-21T11:36:03.115Z,1009.07
2018-11-21T11:37:03.056Z,1009.09
2018-11-21T11:38:03.053Z,1009.08
2018-11-21T11:39:03.036Z,1009.08
2018-11-21T11:40:03.025Z,1009.10
2018-11-21T11:41:03.066Z,1009.09
2018-11-21T11:42:03.012Z,1009.07
2018-11-21T11:43:03.007Z,1009.01
2018-11-21T11:44:02.981Z,1008.95
2018-11-21T11:45:02.975Z,1009.00
2018-11-21T11:46:02.960Z,1009.06
2018-11-21T11:47:03.005Z,1009.08
2018-11-21T11:48:02.952Z,1009.07
2018-11-21T11:49:02.929Z,1009.03
2018-11-21T11:50:02.925Z,1009.05
2018-11-21T11:51:02.910Z,1009.04
2018-11-21T11:52:02.899Z,1009.06
2018-11-21T11:53:02.941Z,1009.07
2018-11-21T11:54:02.893Z,1009.09
2018-11-21T11:55:02.876Z,1009.10
2018-11-21T11:56:02.854Z,1009.10
2018-11-21T11:57:02.847Z,1009.09
2018-11-21T11:58:02.830Z,1009.09
2018-11-21T11:59:02.872Z,1009.15
2018-11-21T12:00:02.835Z,1009.17
2018-11-21T12:01:02.798Z,1009.22
2018-11-21T12:02:02.814Z,1009.23
2018-11-21T12:03:02.782Z,1009.28
2018-11-21T12:04:02.770Z,1009.29
2018-11-21T12:05:02.983Z,1009.31